Terminal Aerodrome Forecast
Issued by NWS Grand Forks, ND

Home | Current Version | Previous Version | Text Only | Print | Product List | Glossary On
Versions: 1 2 3 4 5 6 7 8 9 10 11 12 13 14 15 16 17 18 19 20 21 22 23 24 25
000
FTUS43 KFGF 232338
TAFGFK
TAF
KGFK 232338Z 2400/2424 07015KT 5SM -SN BR SCT015 BKN035
      TEMPO 2400/2402 2SM -SN BR BKN015
     FM240200 08013KT 5SM -SN BR BKN020
     FM240900 10012KT P6SM OVC015
     FM241500 12012G20KT 5SM -RA BKN015 OVC025=

USA.gov is the U.S. government's official web portal to all federal, state and local government web resources and services.